Time;durP1;ratioP1;P1;durP2;ratioP2;P2;SDS_P1;SDS_P2;PMS_P1;PMS_P2;Temp;Humidity;BMP_temperature;BMP_pressure;BME280_temperature;BME280_humidity;BME280_pressure;Samples;Min_cycle;Max_cycle;Signal;HPM_P1;HPM_P2
2023/12/21 00:01:26;;;;;;;;;;;;;;;;;;5111619;28;19931;-79
2023/12/21 00:13:34;;;;;;;;;;;;;;;;;;5059217;28;20007;-79
2023/12/21 00:16:38;;;;;;;;;;;;;;;;;;5061127;28;20012;-79
2023/12/21 00:19:32;;;;;;;;;;;;;;;;;;5028762;28;19963;-79
2023/12/21 00:28:29;;;;;;;;;;;;;;;;;;5049437;28;20336;-79
2023/12/21 00:34:17;;;;;;;;;;;;;;;;;;5048038;28;20019;-79
2023/12/21 00:37:03;;;;;;;;;;;;;;;;;;5022488;28;19916;-80
2023/12/21 00:45:50;;;;;;;;;;;;;;;;;;5034237;28;19921;-79
2023/12/21 00:48:52;;;;;;;;;;;;;;;;;;5079288;28;19914;-79
2023/12/21 00:51:54;;;;;;;;;;;;;;;;;;5058554;28;19919;-79
2023/12/21 01:03:47;;;;;;;;;;;;;;;;;;5113241;28;20587;-78
2023/12/21 01:06:36;;;;;;;;;;;;;;;;;;5111896;28;19915;-77
2023/12/21 01:09:26;;;;;;;;;;;;;;;;;;5089869;28;19920;-77
2023/12/21 01:12:32;;;;;;;;;;;;;;;;;;5089160;28;19990;-77
2023/12/21 01:15:33;;;;;;;;;;;;;;;;;;5071219;28;19928;-77
2023/12/21 01:21:45;;;;;;;;;;;;;;;;;;5065819;28;19920;-77
2023/12/21 01:24:23;;;;;;;;;;;;;;;;;;5020992;28;20019;-77
2023/12/21 01:33:49;;;;;;;;;;;;;;;;;;5099917;28;19914;-78
2023/12/21 01:36:25;;;;;;;;;;;;;;;;;;5074836;28;20289;-78
2023/12/21 01:42:34;;;;;;;;;;;;;;;;;;5004535;28;19916;-77
2023/12/21 01:45:33;;;;;;;;;;;;;;;;;;5023555;28;19916;-78
2023/12/21 01:48:37;;;;;;;;;;;;;;;;;;5008935;28;20529;-78
2023/12/21 02:03:53;;;;;;;;;;;;;;;;;;4934420;29;20368;-77
2023/12/21 02:06:31;;;;;;;;;;;;;;;;;;4951196;29;19923;-78
2023/12/21 02:12:25;;;;;;;;;;;;;;;;;;4950411;29;19918;-78
2023/12/21 02:18:03;;;;;;;;;;;;;;;;;;5032391;28;19932;-78
2023/12/21 02:20:49;;;;;;;;;;;;;;;;;;5049324;28;20412;-77
2023/12/21 02:23:49;;;;;;;;;;;;;;;;;;5069414;28;20270;-78
2023/12/21 02:26:53;;;;;;;;;;;;;;;;;;5057675;28;19916;-78
2023/12/21 02:30:04;;;;;;;;;;;;;;;;;;5009068;28;20346;-77
2023/12/21 02:32:53;;;;;;;;;;;;;;;;;;5012834;28;20465;-79
2023/12/21 02:38:41;;;;;;;;;;;;;;;;;;4972986;28;19925;-78
2023/12/21 02:41:28;;;;;;;;;;;;;;;;;;4972529;28;19916;-78
2023/12/21 02:44:32;;;;;;;;;;;;;;;;;;4998346;28;20291;-78
2023/12/21 02:47:36;;;;;;;;;;;;;;;;;;4977774;28;19969;-78
2023/12/21 02:50:39;;;;;;;;;;;;;;;;;;5002181;28;19992;-78
2023/12/21 02:59:40;;;;;;;;;;;;;;;;;;5073326;28;20015;-78
2023/12/21 03:02:26;;;;;;;;;;;;;;;;;;5055804;28;19998;-78
2023/12/21 03:05:48;;;;;;;;;;;;;;;;;;5042112;28;19920;-77
2023/12/21 03:08:52;;;;;;;;;;;;;;;;;;5103481;28;19916;-77
2023/12/21 03:11:51;;;;;;;;;;;;;;;;;;5095689;28;19920;-78
2023/12/21 03:14:51;;;;;;;;;;;;;;;;;;5115407;28;19914;-78
2023/12/21 03:17:56;;;;;;;;;;;;;;;;;;5115308;28;19962;-78
2023/12/21 03:21:05;;;;;;;;;;;;;;;;;;5117207;27;19927;-78
2023/12/21 03:33:02;;;;;;;;;;;;;;;;;;5130906;27;19918;-78
2023/12/21 03:39:09;;;;;;;;;;;;;;;;;;5051776;28;20174;-78
2023/12/21 03:42:05;;;;;;;;;;;;;;;;;;5050760;28;20024;-78
2023/12/21 03:45:20;;;;;;;;;;;;;;;;;;5049441;28;19925;-77
2023/12/21 03:48:27;;;;;;;;;;;;;;;;;;5047603;28;19924;-78
2023/12/21 03:51:28;;;;;;;;;;;;;;;;;;5034684;28;19955;-78
2023/12/21 03:54:04;;;;;;;;;;;;;;;;;;5015061;28;20364;-77
2023/12/21 03:57:27;;;;;;;;;;;;;;;;;;5050873;28;20416;-78
2023/12/21 04:03:31;;;;;;;;;;;;;;;;;;4998711;28;19929;-78
2023/12/21 04:09:23;;;;;;;;;;;;;;;;;;5039358;28;20020;-78
2023/12/21 04:12:35;;;;;;;;;;;;;;;;;;5069577;28;20343;-78
2023/12/21 04:18:58;;;;;;;;;;;;;;;;;;5053759;28;19920;-78
2023/12/21 04:25:22;;;;;;;;;;;;;;;;;;4990197;28;20366;-77
2023/12/21 04:32:05;;;;;;;;;;;;;;;;;;5049970;28;19998;-78
2023/12/21 04:37:59;;;;;;;;;;;;;;;;;;5112481;28;20348;-78
2023/12/21 04:41:02;;;;;;;;;;;;;;;;;;5049103;28;19955;-78
2023/12/21 04:43:46;;;;;;;;;;;;;;;;;;5062930;28;19915;-78
2023/12/21 04:47:08;;;;;;;;;;;;;;;;;;5054521;28;19924;-79
2023/12/21 04:53:18;;;;;;;;;;;;;;;;;;5069645;28;20435;-78
2023/12/21 04:59:26;;;;;;;;;;;;;;;;;;4995432;28;19932;-78
2023/12/21 05:05:13;;;;;;;;;;;;;;;;;;5015380;28;19925;-77
2023/12/21 05:11:10;;;;;;;;;;;;;;;;;;4951563;29;19922;-77
2023/12/21 05:13:52;;;;;;;;;;;;;;;;;;4966138;28;19939;-78
2023/12/21 05:16:28;;;;;;;;;;;;;;;;;;4990669;28;19922;-78
2023/12/21 05:19:17;;;;;;;;;;;;;;;;;;5069768;28;19975;-77
2023/12/21 05:31:39;;;;;;;;;;;;;;;;;;4171087;28;26018639;-78
2023/12/21 05:43:25;;;;;;;;;;;;;;;;;;5109316;28;19922;-78
2023/12/21 05:46:30;;;;;;;;;;;;;;;;;;5100376;28;19977;-77
2023/12/21 05:49:13;;;;;;;;;;;;;;;;;;5091672;28;19976;-78
2023/12/21 05:55:24;;;;;;;;;;;;;;;;;;5133270;27;19915;-78
2023/12/21 05:58:33;;;;;;;;;;;;;;;;;;5068420;28;19924;-77
2023/12/21 06:01:25;;;;;;;;;;;;;;;;;;5069878;28;19954;-77
2023/12/21 06:04:37;;;;;;;;;;;;;;;;;;5028602;28;19925;-77
2023/12/21 06:07:33;;;;;;;;;;;;;;;;;;5028965;28;20035;-77
2023/12/21 06:10:31;;;;;;;;;;;;;;;;;;5002676;28;20060;-77
2023/12/21 06:25:30;;;;;;;;;;;;;;;;;;5008395;28;20464;-77
2023/12/21 06:28:38;;;;;;;;;;;;;;;;;;4968299;28;19917;-78
2023/12/21 06:40:53;;;;;;;;;;;;;;;;;;5069038;28;20396;-79
2023/12/21 06:53:02;;;;;;;;;;;;;;;;;;5046605;28;20293;-78
2023/12/21 06:56:14;;;;;;;;;;;;;;;;;;5068191;28;19931;-78
2023/12/21 07:02:19;;;;;;;;;;;;;;;;;;5046392;28;19939;-78
2023/12/21 07:05:14;;;;;;;;;;;;;;;;;;5025410;28;19951;-77
2023/12/21 07:08:18;;;;;;;;;;;;;;;;;;5061957;28;19920;-77
2023/12/21 07:10:56;;;;;;;;;;;;;;;;;;5128256;28;20390;-78
2023/12/21 07:13:44;;;;;;;;;;;;;;;;;;5094502;28;19972;-78
2023/12/21 07:16:44;;;;;;;;;;;;;;;;;;5055997;28;20440;-78
2023/12/21 07:19:45;;;;;;;;;;;;;;;;;;5059378;28;20290;-77
2023/12/21 07:22:29;;;;;;;;;;;;;;;;;;5053280;28;20019;-77
2023/12/21 07:25:16;;;;;;;;;;;;;;;;;;5075043;28;19979;-76
2023/12/21 07:27:44;;;;;;;;;;;;;;;;;;5072529;28;19941;-78
2023/12/21 07:33:34;;;;;;;;;;;;;;;;;;5078135;28;19927;-78
2023/12/21 07:36:08;;;;;;;;;;;;;;;;;;5115478;27;20409;-79
2023/12/21 07:38:34;;;;;;;;;;;;;;;;;;5101256;27;19919;-77
2023/12/21 07:41:00;;;;;;;;;;;;;;;;;;5117766;27;20272;-79
2023/12/21 07:43:26;;;;;;;;;;;;;;;;;;5109541;27;20440;-77
2023/12/21 07:45:52;;;;;;;;;;;;;;;;;;5099652;27;19926;-76
2023/12/21 07:48:19;;;;;;;;;;;;;;;;;;5116775;27;20347;-76
2023/12/21 07:50:45;;;;;;;;;;;;;;;;;;5116558;27;19966;-76
2023/12/21 07:53:11;;;;;;;;;;;;;;;;;;5115959;27;20056;-77
2023/12/21 07:55:37;;;;;;;;;;;;;;;;;;5117181;27;19919;-77
2023/12/21 07:58:05;;;;;;;;;;;;;;;;;;5115716;27;20049;-76
2023/12/21 08:00:32;;;;;;;;;;;;;;;;;;5100046;27;19972;-77
2023/12/21 08:03:00;;;;;;;;;;;;;;;;;;5134562;27;19926;-77
2023/12/21 08:05:26;;;;;;;;;;;;;;;;;;5116819;27;19919;-76
2023/12/21 08:07:52;;;;;;;;;;;;;;;;;;5104686;27;20015;-75
2023/12/21 08:10:18;;;;;;;;;;;;;;;;;;5115674;27;20007;-81
2023/12/21 08:12:44;;;;;;;;;;;;;;;;;;5116315;27;19968;-82
2023/12/21 08:15:10;;;;;;;;;;;;;;;;;;5099907;27;19919;-81
2023/12/21 08:17:51;;;;;;;;;;;;;;;;;;5100131;27;19923;-81
2023/12/21 08:20:30;;;;;;;;;;;;;;;;;;5127861;27;19920;-79
2023/12/21 08:26:37;;;;;;;;;;;;;;;;;;5134416;27;19960;-80
2023/12/21 08:32:45;;;;;;;;;;;;;;;;;;5129393;27;19926;-76
2023/12/21 08:36:06;;;;;;;;;;;;;;;;;;5119623;27;19985;-77
2023/12/21 08:39:09;;;;;;;;;;;;;;;;;;5084424;28;19924;-78
2023/12/21 08:42:08;;;;;;;;;;;;;;;;;;5087834;28;20371;-79
2023/12/21 08:44:41;;;;;;;;;;;;;;;;;;5070318;28;19920;-78
2023/12/21 08:47:29;;;;;;;;;;;;;;;;;;5067566;28;19920;-78
2023/12/21 08:53:00;;;;;;;;;;;;;;;;;;5099772;28;19961;-78
2023/12/21 08:55:36;;;;;;;;;;;;;;;;;;5092837;28;19970;-78
2023/12/21 08:58:23;;;;;;;;;;;;;;;;;;5099830;28;19985;-78
2023/12/21 09:01:12;;;;;;;;;;;;;;;;;;5102017;28;19977;-79
2023/12/21 09:04:34;;;;;;;;;;;;;;;;;;5109176;28;19999;-78
2023/12/21 09:07:33;;;;;;;;;;;;;;;;;;5108882;28;19923;-78
2023/12/21 09:10:24;;;;;;;;;;;;;;;;;;5110134;28;20441;-78
2023/12/21 09:13:05;;;;;;;;;;;;;;;;;;5040642;28;20446;-78
2023/12/21 09:15:46;;;;;;;;;;;;;;;;;;5052890;28;20016;-78
2023/12/21 09:18:26;;;;;;;;;;;;;;;;;;5083890;28;19982;-77
2023/12/21 09:20:58;;;;;;;;;;;;;;;;;;5044529;28;19970;-78
2023/12/21 09:23:34;;;;;;;;;;;;;;;;;;5067866;28;19928;-78
2023/12/21 09:26:09;;;;;;;;;;;;;;;;;;5064381;28;19920;-77
2023/12/21 09:31:46;;;;;;;;;;;;;;;;;;5056982;28;19927;-78
2023/12/21 09:34:34;;;;;;;;;;;;;;;;;;5052074;28;19982;-77
2023/12/21 09:37:15;;;;;;;;;;;;;;;;;;5023929;28;19944;-79
2023/12/21 09:40:12;;;;;;;;;;;;;;;;;;5086602;28;19930;-78
2023/12/21 09:42:48;;;;;;;;;;;;;;;;;;5052128;28;19920;-78
2023/12/21 09:45:14;;;;;;;;;;;;;;;;;;5093832;28;19919;-78
2023/12/21 09:47:40;;;;;;;;;;;;;;;;;;5112258;28;19969;-78
2023/12/21 09:56:16;;;;;;;;;;;;;;;;;;5112099;28;20414;-78
2023/12/21 10:02:26;;;;;;;;;;;;;;;;;;5084747;28;19920;-78
2023/12/21 10:05:16;;;;;;;;;;;;;;;;;;5017155;28;19928;-78
2023/12/21 10:08:13;;;;;;;;;;;;;;;;;;4967024;28;20422;-79
2023/12/21 10:11:06;;;;;;;;;;;;;;;;;;4937689;29;19925;-78
2023/12/21 10:13:55;;;;;;;;;;;;;;;;;;4955705;28;20189;-77
2023/12/21 10:19:48;;;;;;;;;;;;;;;;;;5028023;28;19954;-78
2023/12/21 10:22:32;;;;;;;;;;;;;;;;;;5042478;28;19920;-79
2023/12/21 10:25:01;;;;;;;;;;;;;;;;;;5034500;28;19921;-79
2023/12/21 10:27:34;;;;;;;;;;;;;;;;;;5053004;28;19921;-80
2023/12/21 10:30:16;;;;;;;;;;;;;;;;;;5038985;28;19921;-79
2023/12/21 10:32:48;;;;;;;;;;;;;;;;;;5031611;28;19983;-79
2023/12/21 10:35:14;;;;;;;;;;;;;;;;;;5045900;28;20351;-79
2023/12/21 10:37:40;;;;;;;;;;;;;;;;;;5047249;28;19925;-79
2023/12/21 10:40:06;;;;;;;;;;;;;;;;;;5049420;28;19981;-79
2023/12/21 10:42:32;;;;;;;;;;;;;;;;;;5067926;28;19949;-76
2023/12/21 10:44:59;;;;;;;;;;;;;;;;;;5079685;28;19920;-78
2023/12/21 10:47:25;;;;;;;;;;;;;;;;;;5093956;28;20347;-80
2023/12/21 10:49:51;;;;;;;;;;;;;;;;;;5093643;28;19963;-78
2023/12/21 10:52:17;;;;;;;;;;;;;;;;;;5109987;28;20369;-78
2023/12/21 10:54:42;;;;;;;;;;;;;;;;;;5110078;28;20336;-78
2023/12/21 10:57:08;;;;;;;;;;;;;;;;;;5110053;28;19924;-78
2023/12/21 10:59:34;;;;;;;;;;;;;;;;;;5114024;28;19920;-78
2023/12/21 11:02:00;;;;;;;;;;;;;;;;;;5098026;28;20012;-78
2023/12/21 11:04:27;;;;;;;;;;;;;;;;;;5097198;28;19919;-79
2023/12/21 11:06:53;;;;;;;;;;;;;;;;;;5098151;28;19935;-79
2023/12/21 11:09:26;;;;;;;;;;;;;;;;;;5097495;28;19919;-77
2023/12/21 11:11:57;;;;;;;;;;;;;;;;;;5114982;28;19919;-78
2023/12/21 11:14:23;;;;;;;;;;;;;;;;;;5096634;28;19923;-78
2023/12/21 11:16:53;;;;;;;;;;;;;;;;;;5115519;28;19927;-78
2023/12/21 11:19:34;;;;;;;;;;;;;;;;;;5122050;27;19919;-78
2023/12/21 11:22:01;;;;;;;;;;;;;;;;;;5114351;28;20407;-78
2023/12/21 11:24:34;;;;;;;;;;;;;;;;;;5112811;28;19931;-78
2023/12/21 11:27:06;;;;;;;;;;;;;;;;;;5113104;28;19920;-77
2023/12/21 11:29:33;;;;;;;;;;;;;;;;;;5113558;28;19969;-78
2023/12/21 11:32:05;;;;;;;;;;;;;;;;;;5097484;28;19930;-78
2023/12/21 11:34:49;;;;;;;;;;;;;;;;;;5114607;28;19920;-78
2023/12/21 11:37:14;;;;;;;;;;;;;;;;;;5108231;28;19926;-78
2023/12/21 11:39:59;;;;;;;;;;;;;;;;;;5106802;28;19964;-77
2023/12/21 11:42:35;;;;;;;;;;;;;;;;;;5140814;27;19923;-78
2023/12/21 11:45:13;;;;;;;;;;;;;;;;;;5094358;28;19935;-78
2023/12/21 11:47:54;;;;;;;;;;;;;;;;;;5113862;28;19963;-77
2023/12/21 11:50:20;;;;;;;;;;;;;;;;;;5094387;28;19978;-77
2023/12/21 11:52:46;;;;;;;;;;;;;;;;;;5133125;27;20249;-78
2023/12/21 11:55:12;;;;;;;;;;;;;;;;;;5109996;28;19920;-77
2023/12/21 11:57:39;;;;;;;;;;;;;;;;;;5128628;27;20011;-77
2023/12/21 12:00:06;;;;;;;;;;;;;;;;;;5113863;28;19920;-78
2023/12/21 12:02:31;;;;;;;;;;;;;;;;;;5096756;28;19919;-77
2023/12/21 12:05:04;;;;;;;;;;;;;;;;;;5116345;27;20352;-77
2023/12/21 12:07:30;;;;;;;;;;;;;;;;;;5129131;27;19924;-78
2023/12/21 12:09:56;;;;;;;;;;;;;;;;;;5128284;27;19930;-77
2023/12/21 12:12:22;;;;;;;;;;;;;;;;;;5095580;28;19920;-77
2023/12/21 12:14:53;;;;;;;;;;;;;;;;;;5147566;27;20019;-77
2023/12/21 12:17:19;;;;;;;;;;;;;;;;;;5130693;27;20015;-76
2023/12/21 12:19:48;;;;;;;;;;;;;;;;;;5112066;28;19926;-77
2023/12/21 12:22:14;;;;;;;;;;;;;;;;;;5140428;27;20369;-77
2023/12/21 12:24:46;;;;;;;;;;;;;;;;;;5092817;28;19926;-78
2023/12/21 12:27:12;;;;;;;;;;;;;;;;;;5111831;28;20018;-77
2023/12/21 12:29:38;;;;;;;;;;;;;;;;;;5103840;28;19919;-79
2023/12/21 12:32:04;;;;;;;;;;;;;;;;;;5095162;28;19965;-77
2023/12/21 12:34:39;;;;;;;;;;;;;;;;;;5105020;28;19926;-78
2023/12/21 12:37:07;;;;;;;;;;;;;;;;;;5129531;27;19927;-77
2023/12/21 12:39:32;;;;;;;;;;;;;;;;;;5094592;28;20035;-75
2023/12/21 12:41:59;;;;;;;;;;;;;;;;;;5128735;27;19967;-78
2023/12/21 12:44:25;;;;;;;;;;;;;;;;;;5095722;28;19942;-78
2023/12/21 12:46:51;;;;;;;;;;;;;;;;;;5112355;28;19926;-78
2023/12/21 12:49:17;;;;;;;;;;;;;;;;;;5140035;27;20272;-76
2023/12/21 12:51:43;;;;;;;;;;;;;;;;;;5087390;28;19924;-79
2023/12/21 12:54:09;;;;;;;;;;;;;;;;;;5132951;27;19926;-77
2023/12/21 12:56:35;;;;;;;;;;;;;;;;;;5094567;28;20360;-78
2023/12/21 12:59:01;;;;;;;;;;;;;;;;;;5128298;27;19916;-77
2023/12/21 13:01:27;;;;;;;;;;;;;;;;;;5094783;28;19924;-77
2023/12/21 13:03:53;;;;;;;;;;;;;;;;;;5145938;27;19931;-76
2023/12/21 13:06:19;;;;;;;;;;;;;;;;;;5095487;28;19920;-77
2023/12/21 13:08:45;;;;;;;;;;;;;;;;;;5094550;28;20388;-76
2023/12/21 13:11:11;;;;;;;;;;;;;;;;;;5146452;27;19973;-76
2023/12/21 13:13:37;;;;;;;;;;;;;;;;;;5111395;28;20421;-77
2023/12/21 13:16:03;;;;;;;;;;;;;;;;;;5094385;28;19967;-76
2023/12/21 13:18:29;;;;;;;;;;;;;;;;;;5111930;28;20332;-77
2023/12/21 13:20:55;;;;;;;;;;;;;;;;;;5111186;28;19920;-76
2023/12/21 13:23:21;;;;;;;;;;;;;;;;;;5094314;28;19920;-76
2023/12/21 13:25:47;;;;;;;;;;;;;;;;;;5094239;28;19920;-77
2023/12/21 13:28:13;;;;;;;;;;;;;;;;;;5111359;28;19923;-76
2023/12/21 13:30:39;;;;;;;;;;;;;;;;;;5094775;28;19923;-76
2023/12/21 13:33:07;;;;;;;;;;;;;;;;;;5111304;28;20709;-77
2023/12/21 13:35:33;;;;;;;;;;;;;;;;;;5113065;27;20403;-77
2023/12/21 13:38:00;;;;;;;;;;;;;;;;;;5114508;27;19919;-78
2023/12/21 13:40:27;;;;;;;;;;;;;;;;;;5131094;27;19919;-77
2023/12/21 13:42:53;;;;;;;;;;;;;;;;;;5129996;27;20372;-77
2023/12/21 13:45:20;;;;;;;;;;;;;;;;;;5096995;27;20010;-78
2023/12/21 13:47:46;;;;;;;;;;;;;;;;;;5130222;27;19923;-77
2023/12/21 13:50:12;;;;;;;;;;;;;;;;;;5113546;27;19966;-77
2023/12/21 13:52:38;;;;;;;;;;;;;;;;;;5114041;27;19919;-78
2023/12/21 13:55:04;;;;;;;;;;;;;;;;;;5095854;27;19919;-77
2023/12/21 13:57:30;;;;;;;;;;;;;;;;;;5114362;27;20407;-78
2023/12/21 14:00:03;;;;;;;;;;;;;;;;;;5130224;27;19969;-78
2023/12/21 14:02:29;;;;;;;;;;;;;;;;;;5131388;27;19987;-78
2023/12/21 14:04:57;;;;;;;;;;;;;;;;;;5128928;27;19923;-78
2023/12/21 14:07:23;;;;;;;;;;;;;;;;;;5122377;27;19923;-78
2023/12/21 14:09:50;;;;;;;;;;;;;;;;;;5122693;27;20010;-79
2023/12/21 14:12:16;;;;;;;;;;;;;;;;;;5122209;27;20504;-77
2023/12/21 14:14:42;;;;;;;;;;;;;;;;;;5106579;27;19964;-78
2023/12/21 14:17:08;;;;;;;;;;;;;;;;;;5106008;27;19919;-78
2023/12/21 14:19:35;;;;;;;;;;;;;;;;;;5118406;27;19919;-78
2023/12/21 14:22:01;;;;;;;;;;;;;;;;;;5120467;27;19930;-77
2023/12/21 14:24:28;;;;;;;;;;;;;;;;;;5105080;28;19919;-77
2023/12/21 14:26:54;;;;;;;;;;;;;;;;;;5104358;28;19927;-79
2023/12/21 14:29:20;;;;;;;;;;;;;;;;;;5100751;28;20433;-77
2023/12/21 14:31:46;;;;;;;;;;;;;;;;;;5106708;27;20398;-77
2023/12/21 14:34:15;;;;;;;;;;;;;;;;;;5133827;27;19925;-78
2023/12/21 14:37:00;;;;;;;;;;;;;;;;;;5137460;27;19968;-78
2023/12/21 14:39:32;;;;;;;;;;;;;;;;;;5120796;27;19983;-75
2023/12/21 14:41:58;;;;;;;;;;;;;;;;;;5100006;27;19955;-77
2023/12/21 14:44:27;;;;;;;;;;;;;;;;;;5137885;27;19919;-78
2023/12/21 14:46:53;;;;;;;;;;;;;;;;;;5120402;27;19938;-78
2023/12/21 14:49:19;;;;;;;;;;;;;;;;;;5133029;27;19967;-77
2023/12/21 14:51:45;;;;;;;;;;;;;;;;;;5118249;27;19942;-77
2023/12/21 14:54:11;;;;;;;;;;;;;;;;;;5104027;27;19919;-78
2023/12/21 14:56:37;;;;;;;;;;;;;;;;;;5124099;27;19920;-84
2023/12/21 14:59:03;;;;;;;;;;;;;;;;;;5122754;27;19982;-80
2023/12/21 15:01:29;;;;;;;;;;;;;;;;;;5122658;27;19925;-78
2023/12/21 15:03:55;;;;;;;;;;;;;;;;;;5107107;27;20382;-84
2023/12/21 15:06:23;;;;;;;;;;;;;;;;;;5123908;27;19919;-85
2023/12/21 15:08:49;;;;;;;;;;;;;;;;;;5120612;27;19926;-87
2023/12/21 15:11:15;;;;;;;;;;;;;;;;;;5117068;27;19919;-85
2023/12/21 15:13:41;;;;;;;;;;;;;;;;;;5105956;27;19919;-87
2023/12/21 15:16:07;;;;;;;;;;;;;;;;;;5122681;27;19927;-86
2023/12/21 15:18:33;;;;;;;;;;;;;;;;;;5103898;27;19988;-86
2023/12/21 15:21:02;;;;;;;;;;;;;;;;;;5147647;27;19920;-86
2023/12/21 15:23:28;;;;;;;;;;;;;;;;;;5124061;27;19980;-87
2023/12/21 15:25:54;;;;;;;;;;;;;;;;;;5106994;27;19990;-86
2023/12/21 15:28:21;;;;;;;;;;;;;;;;;;5123166;27;20069;-86
2023/12/21 15:30:47;;;;;;;;;;;;;;;;;;5124044;27;19978;-86
2023/12/21 15:33:13;;;;;;;;;;;;;;;;;;5119241;27;20018;-86
2023/12/21 15:35:38;;;;;;;;;;;;;;;;;;5121665;27;20433;-86
2023/12/21 15:38:04;;;;;;;;;;;;;;;;;;5118781;27;20314;-86
2023/12/21 15:40:30;;;;;;;;;;;;;;;;;;5107401;27;19919;-85
2023/12/21 15:42:56;;;;;;;;;;;;;;;;;;5103309;27;19927;-85
2023/12/21 15:45:22;;;;;;;;;;;;;;;;;;5117808;27;19931;-84
2023/12/21 15:47:49;;;;;;;;;;;;;;;;;;5121821;27;20373;-84
2023/12/21 15:50:16;;;;;;;;;;;;;;;;;;5090430;28;19923;-84
2023/12/21 15:52:42;;;;;;;;;;;;;;;;;;5115444;27;19923;-85
2023/12/21 15:55:08;;;;;;;;;;;;;;;;;;5115945;27;19926;-83
2023/12/21 15:57:34;;;;;;;;;;;;;;;;;;5115732;27;20371;-84
2023/12/21 16:00:00;;;;;;;;;;;;;;;;;;5116696;27;19919;-84
2023/12/21 16:02:26;;;;;;;;;;;;;;;;;;5116195;27;19927;-83
2023/12/21 16:04:52;;;;;;;;;;;;;;;;;;5115729;27;20002;-84
2023/12/21 16:07:18;;;;;;;;;;;;;;;;;;5115735;27;19927;-83
2023/12/21 16:09:47;;;;;;;;;;;;;;;;;;5116172;27;20360;-83
2023/12/21 16:12:13;;;;;;;;;;;;;;;;;;5115068;27;19973;-83
2023/12/21 16:14:39;;;;;;;;;;;;;;;;;;5115528;27;20353;-84
2023/12/21 16:17:05;;;;;;;;;;;;;;;;;;5116222;27;19923;-86
2023/12/21 16:19:31;;;;;;;;;;;;;;;;;;5122827;27;19966;-89
2023/12/21 16:21:57;;;;;;;;;;;;;;;;;;5117014;27;19927;-87
2023/12/21 16:24:25;;;;;;;;;;;;;;;;;;5104695;27;19924;-87
2023/12/21 16:26:51;;;;;;;;;;;;;;;;;;5119661;27;20349;-84
2023/12/21 16:29:17;;;;;;;;;;;;;;;;;;5126702;27;19973;-84
2023/12/21 16:31:43;;;;;;;;;;;;;;;;;;5108544;27;19959;-87
2023/12/21 16:34:09;;;;;;;;;;;;;;;;;;5124869;27;19920;-86
2023/12/21 16:36:35;;;;;;;;;;;;;;;;;;5102884;27;19919;-87
2023/12/21 16:39:03;;;;;;;;;;;;;;;;;;5125316;27;19927;-86
2023/12/21 16:41:29;;;;;;;;;;;;;;;;;;5126350;27;19979;-87
2023/12/21 16:43:55;;;;;;;;;;;;;;;;;;5104608;27;19919;-86
2023/12/21 16:46:21;;;;;;;;;;;;;;;;;;5122362;27;19926;-86
2023/12/21 16:48:48;;;;;;;;;;;;;;;;;;5109619;27;19919;-88
2023/12/21 16:51:14;;;;;;;;;;;;;;;;;;5101466;28;20296;-86
2023/12/21 16:53:40;;;;;;;;;;;;;;;;;;5092872;27;19934;-88
2023/12/21 16:56:06;;;;;;;;;;;;;;;;;;5131349;27;19963;-82
2023/12/21 16:58:32;;;;;;;;;;;;;;;;;;5148154;27;19919;-82
2023/12/21 17:00:58;;;;;;;;;;;;;;;;;;5115464;27;19919;-82
2023/12/21 17:03:24;;;;;;;;;;;;;;;;;;5140241;27;20360;-83
2023/12/21 17:05:50;;;;;;;;;;;;;;;;;;5150022;27;19919;-85
2023/12/21 17:08:16;;;;;;;;;;;;;;;;;;5098323;27;19919;-83
2023/12/21 17:10:42;;;;;;;;;;;;;;;;;;5118909;27;20006;-83
2023/12/21 17:13:08;;;;;;;;;;;;;;;;;;5132573;27;19926;-85
2023/12/21 17:15:34;;;;;;;;;;;;;;;;;;5132050;27;19920;-83
2023/12/21 17:18:01;;;;;;;;;;;;;;;;;;5132310;27;20417;-83
2023/12/21 17:20:27;;;;;;;;;;;;;;;;;;5114689;27;19919;-83
2023/12/21 17:22:53;;;;;;;;;;;;;;;;;;5093545;28;19924;-86
2023/12/21 17:25:20;;;;;;;;;;;;;;;;;;5110941;27;19931;-81
2023/12/21 17:27:46;;;;;;;;;;;;;;;;;;5127582;27;19979;-92
2023/12/21 17:30:12;;;;;;;;;;;;;;;;;;5093062;27;19919;-92
2023/12/21 17:32:38;;;;;;;;;;;;;;;;;;5103383;27;19931;-89
2023/12/21 17:35:04;;;;;;;;;;;;;;;;;;5137576;27;19920;-88
2023/12/21 17:37:30;;;;;;;;;;;;;;;;;;5116553;27;19942;-89
2023/12/21 17:39:56;;;;;;;;;;;;;;;;;;5097779;27;19958;-89
2023/12/21 17:42:22;;;;;;;;;;;;;;;;;;5116822;27;19919;-88
2023/12/21 17:44:48;;;;;;;;;;;;;;;;;;5096889;27;19927;-87
2023/12/21 17:47:14;;;;;;;;;;;;;;;;;;5112372;27;20002;-91
2023/12/21 17:49:40;;;;;;;;;;;;;;;;;;5116258;27;19924;-93
2023/12/21 17:52:06;;;;;;;;;;;;;;;;;;5099482;27;19966;-93
2023/12/21 17:54:32;;;;;;;;;;;;;;;;;;5112881;28;19974;-92
2023/12/21 17:56:59;;;;;;;;;;;;;;;;;;5130258;27;19998;-91
2023/12/21 17:59:25;;;;;;;;;;;;;;;;;;5111753;28;19959;-92
2023/12/21 18:01:51;;;;;;;;;;;;;;;;;;5106491;27;19967;-92
2023/12/21 18:04:17;;;;;;;;;;;;;;;;;;5102426;27;19919;-90
2023/12/21 18:06:45;;;;;;;;;;;;;;;;;;5116072;27;20353;-92
2023/12/21 18:09:11;;;;;;;;;;;;;;;;;;5133204;27;19949;-91
2023/12/21 18:11:38;;;;;;;;;;;;;;;;;;5115210;27;19926;-88
2023/12/21 18:14:04;;;;;;;;;;;;;;;;;;5084955;27;19931;-92
2023/12/21 18:16:30;;;;;;;;;;;;;;;;;;5116333;28;19920;-92
2023/12/21 18:18:58;;;;;;;;;;;;;;;;;;5114670;27;19930;-92
2023/12/21 18:21:24;;;;;;;;;;;;;;;;;;5106997;28;20038;-89
2023/12/21 18:23:50;;;;;;;;;;;;;;;;;;5098923;27;19984;-91
2023/12/21 18:26:16;;;;;;;;;;;;;;;;;;5116167;27;19942;-89
2023/12/21 18:28:42;;;;;;;;;;;;;;;;;;5114959;27;20332;-90
2023/12/21 18:31:08;;;;;;;;;;;;;;;;;;5116370;28;19992;-91
2023/12/21 18:33:34;;;;;;;;;;;;;;;;;;5112518;28;19942;-92
2023/12/21 18:36:00;;;;;;;;;;;;;;;;;;5111296;28;19920;-90
2023/12/21 18:38:26;;;;;;;;;;;;;;;;;;5095040;28;20415;-90
2023/12/21 18:40:52;;;;;;;;;;;;;;;;;;5094557;28;19924;-90
2023/12/21 18:43:18;;;;;;;;;;;;;;;;;;5093351;28;19942;-90
2023/12/21 18:45:48;;;;;;;;;;;;;;;;;;5129918;27;20364;-90
2023/12/21 18:48:15;;;;;;;;;;;;;;;;;;5125552;28;19931;-90
2023/12/21 18:50:40;;;;;;;;;;;;;;;;;;5107557;28;19927;-90
2023/12/21 18:53:06;;;;;;;;;;;;;;;;;;5122863;28;19923;-89
2023/12/21 18:55:32;;;;;;;;;;;;;;;;;;5104861;28;19919;-89
2023/12/21 18:58:01;;;;;;;;;;;;;;;;;;5111571;28;19970;-91
2023/12/21 19:00:27;;;;;;;;;;;;;;;;;;5111005;28;19920;-85
2023/12/21 19:02:53;;;;;;;;;;;;;;;;;;5101360;28;19919;-90
2023/12/21 19:05:19;;;;;;;;;;;;;;;;;;5114750;28;20080;-90
2023/12/21 19:07:45;;;;;;;;;;;;;;;;;;5112512;28;20063;-89
2023/12/21 19:10:11;;;;;;;;;;;;;;;;;;5128103;28;19919;-90
2023/12/21 19:12:37;;;;;;;;;;;;;;;;;;5143951;27;19920;-90
2023/12/21 19:15:02;;;;;;;;;;;;;;;;;;5120335;28;19920;-89
2023/12/21 19:17:31;;;;;;;;;;;;;;;;;;5098751;28;19930;-88
2023/12/21 19:19:57;;;;;;;;;;;;;;;;;;5106151;28;19920;-86
2023/12/21 19:22:23;;;;;;;;;;;;;;;;;;5113236;28;20018;-85
2023/12/21 19:24:49;;;;;;;;;;;;;;;;;;5131617;27;19998;-90
2023/12/21 19:27:15;;;;;;;;;;;;;;;;;;5114504;28;19924;-89
2023/12/21 19:29:41;;;;;;;;;;;;;;;;;;5114523;28;19924;-89
2023/12/21 19:32:07;;;;;;;;;;;;;;;;;;5133097;27;19924;-92
2023/12/21 19:34:33;;;;;;;;;;;;;;;;;;5115149;28;19931;-91
2023/12/21 19:36:59;;;;;;;;;;;;;;;;;;5118509;27;19919;-89
2023/12/21 19:39:25;;;;;;;;;;;;;;;;;;5098695;28;19920;-93
2023/12/21 19:41:51;;;;;;;;;;;;;;;;;;5114935;28;19978;-91
2023/12/21 19:44:17;;;;;;;;;;;;;;;;;;5114450;28;19920;-90
2023/12/21 19:46:43;;;;;;;;;;;;;;;;;;5096617;28;20022;-88
2023/12/21 19:49:09;;;;;;;;;;;;;;;;;;5095690;28;20015;-91
2023/12/21 19:51:35;;;;;;;;;;;;;;;;;;5110044;28;19979;-89
2023/12/21 19:54:01;;;;;;;;;;;;;;;;;;5114914;28;19926;-91
2023/12/21 19:56:27;;;;;;;;;;;;;;;;;;5098494;28;19920;-90
2023/12/21 19:58:54;;;;;;;;;;;;;;;;;;5113768;28;19969;-88
2023/12/21 20:01:20;;;;;;;;;;;;;;;;;;5114855;28;20289;-86
2023/12/21 20:03:46;;;;;;;;;;;;;;;;;;5113825;28;19920;-91
2023/12/21 20:06:12;;;;;;;;;;;;;;;;;;5092252;28;20361;-92
2023/12/21 20:08:38;;;;;;;;;;;;;;;;;;5102953;28;19933;-93
2023/12/21 20:11:04;;;;;;;;;;;;;;;;;;5097291;28;19923;-93
2023/12/21 20:13:30;;;;;;;;;;;;;;;;;;5106079;28;19920;-93
2023/12/21 20:15:56;;;;;;;;;;;;;;;;;;5096518;28;19928;-92
2023/12/21 20:18:22;;;;;;;;;;;;;;;;;;5114027;28;20379;-92
2023/12/21 20:20:48;;;;;;;;;;;;;;;;;;5111415;27;20044;-91
2023/12/21 20:23:13;;;;;;;;;;;;;;;;;;5096456;28;20373;-92
2023/12/21 20:25:39;;;;;;;;;;;;;;;;;;5113512;28;19927;-92
2023/12/21 20:28:07;;;;;;;;;;;;;;;;;;5131021;27;20022;-92
2023/12/21 20:30:34;;;;;;;;;;;;;;;;;;5096796;28;20397;-93
2023/12/21 20:33:00;;;;;;;;;;;;;;;;;;5108098;28;19920;-92
2023/12/21 20:35:26;;;;;;;;;;;;;;;;;;5096708;28;19927;-87
2023/12/21 20:37:52;;;;;;;;;;;;;;;;;;5106406;28;20399;-87
2023/12/21 20:40:19;;;;;;;;;;;;;;;;;;5097118;28;19919;-89
2023/12/21 20:42:48;;;;;;;;;;;;;;;;;;5112572;28;20026;-89
2023/12/21 20:45:14;;;;;;;;;;;;;;;;;;5109381;28;20376;-88
2023/12/21 20:47:40;;;;;;;;;;;;;;;;;;5094156;28;19926;-87
2023/12/21 20:50:06;;;;;;;;;;;;;;;;;;5110746;28;19972;-88
2023/12/21 20:52:32;;;;;;;;;;;;;;;;;;5128148;27;19927;-88
2023/12/21 20:54:58;;;;;;;;;;;;;;;;;;5093205;28;19920;-88
2023/12/21 20:57:24;;;;;;;;;;;;;;;;;;5095897;28;19923;-88
2023/12/21 20:59:50;;;;;;;;;;;;;;;;;;5109497;28;19963;-85
2023/12/21 21:02:16;;;;;;;;;;;;;;;;;;5104351;28;19920;-88